WetterOnline ( https://www.wetteronline.de )

Wetter aktuell Havelberg

Aktuelles Wetter: Seehausen (23m)

6-stündlich | Neueste Meldungen
Ortszeit Temperatur Wetter
Mo, 16.09. 2:00 13.4° C wolkig
So, 15.09. 20:00 17.0° C Sprühregen
So, 15.09. 14:00 23.1° C leicht bewölkt
So, 15.09. 8:00 11.9° C -
So, 15.09. 2:00 6.8° C wolkig
Sa, 14.09. 20:00 14.5° C wolkig
Sa, 14.09. 14:00 17.5° C leicht bewölkt
Sa, 14.09. 8:00 8.0° C leicht bewölkt
Ortszeit Temperatur Wetter
Mo, 16.09. 6:30 12.1° C bedeckt
Mo, 16.09. 6:20 12.1° C bedeckt
Mo, 16.09. 6:10 12.1° C bedeckt
Mo, 16.09. 6:00 12.0° C bedeckt
Mo, 16.09. 5:50 12.0° C bedeckt
Mo, 16.09. 5:40 11.9° C bedeckt
Mo, 16.09. 5:30 11.8° C bedeckt
Mo, 16.09. 5:00 11.6° C bewölkt
Mo, 16.09. 4:30 11.3° C bewölkt
Mo, 16.09. 4:00 11.7° C leicht bewölkt
Mo, 16.09. 3:30 12.3° C wolkig
Ortszeit Relative Feuchte Sichtweite
Mo, 16.09. 2:00 83% 27 km
So, 15.09. 20:00 83% 20 km
So, 15.09. 14:00 28% 20 km
So, 15.09. 8:00 65% 70 km
So, 15.09. 2:00 79% 35 km
Sa, 14.09. 20:00 51% 70 km
Sa, 14.09. 14:00 41% 70 km
Sa, 14.09. 8:00 91% 21 km
Ortszeit Relative Feuchte Sichtweite
Mo, 16.09. 6:30 89% 22 km
Mo, 16.09. 6:20 89% -
Mo, 16.09. 6:10 89% -
Mo, 16.09. 6:00 90% 21 km
Mo, 16.09. 5:50 90% -
Mo, 16.09. 5:40 90% -
Mo, 16.09. 5:30 92% 20 km
Mo, 16.09. 5:00 92% 20 km
Mo, 16.09. 4:30 92% 19 km
Mo, 16.09. 4:00 90% 21 km
Mo, 16.09. 3:30 87% 22 km
Ortszeit Niederschlagsmenge Niederschlagsart
Mo, 16.09. 2:00 0.1 l/m2 in 6 Std. Sprühregen
So, 15.09. 20:00 0.1 l/m2 in 12 Std. Sprühregen
So, 15.09. 14:00 0.0 l/m2 in 6 Std. -
So, 15.09. 8:00 0.0 l/m2 in 12 Std. -
So, 15.09. 2:00 0.0 l/m2 in 6 Std. -
Sa, 14.09. 20:00 0.0 l/m2 in 12 Std. -
Sa, 14.09. 14:00 0.0 l/m2 in 6 Std. -
Sa, 14.09. 8:00 0.0 l/m2 in 12 Std. -
Ortszeit Niederschlagsmenge Niederschlagsart
Mo, 16.09. 6:30 0.0 l/m2 in 1 Std. -
Mo, 16.09. 6:20 keine Meldung -
Mo, 16.09. 6:10 keine Meldung -
Mo, 16.09. 6:00 0.0 l/m2 in 1 Std. -
Mo, 16.09. 5:50 keine Meldung -
Mo, 16.09. 5:40 keine Meldung -
Mo, 16.09. 5:30 0.0 l/m2 in 1 Std. -
Mo, 16.09. 5:00 0.0 l/m2 in 1 Std. -
Mo, 16.09. 4:30 0.0 l/m2 in 1 Std. -
Mo, 16.09. 4:00 0.0 l/m2 in 1 Std. -
Mo, 16.09. 3:30 0.0 l/m2 in 1 Std. -
Ortszeit Stärke Spitze Richtung
km/h Bft. km/h Grad Sektor
Mo, 16.09. 2:00 14 3 43 260° W
So, 15.09. 20:00 20 4 48 280° W
So, 15.09. 14:00 31 5 46 250° W
So, 15.09. 8:00 15 3 22 220° SW
So, 15.09. 2:00 7 2 11 170° S
Sa, 14.09. 20:00 4 1 22 250° W
Sa, 14.09. 14:00 7 2 22 350° N
Sa, 14.09. 8:00 6 1 15 280° W
Ortszeit Stärke Spitze Richtung
km/h Bft. km/h Grad Sektor
Mo, 16.09. 6:30 11 2 14 260° W
Mo, 16.09. 6:20 11 2 - 260° W
Mo, 16.09. 6:10 11 2 - 250° W
Mo, 16.09. 6:00 9 2 13 250° W
Mo, 16.09. 5:50 9 2 - 250° W
Mo, 16.09. 5:40 9 2 - 250° W
Mo, 16.09. 5:30 9 2 13 260° W
Mo, 16.09. 5:00 9 2 15 260° W
Mo, 16.09. 4:30 11 2 14 260° W
Mo, 16.09. 4:00 7 2 18 250° W
Mo, 16.09. 3:30 11 2 18 260° W
Ortszeit Untergrenze Bedeckung Gattung
total tief tief mittel hoch
Mo, 16.09. 2:00 840 m 8/8 1/8 - - -
So, 15.09. 20:00 720 m 8/8 8/8 - - -
So, 15.09. 14:00 8400 m 8/8 0/8 - - -
So, 15.09. 8:00 - - - - - -
So, 15.09. 2:00 10500 m 8/8 0/8 - - -
Sa, 14.09. 20:00 10500 m 8/8 0/8 - - -
Sa, 14.09. 14:00 9000 m 3/8 0/8 - - -
Sa, 14.09. 8:00 8400 m 4/8 0/8 - - -
Ortszeit Bedeckungsgrad in Achtel und Wolkenuntergrenze
Mo, 16.09. 6:30 8(2100m) 8(3000m) 8(4500m)
Mo, 16.09. 6:20 8(2100m) 8(3000m) 8(4500m)
Mo, 16.09. 6:10 8(2100m) 8(3000m) 8(4500m)
Mo, 16.09. 6:00 8(2100m) 8(3000m) 8(4500m)
Mo, 16.09. 5:50 8(2100m) 8(3000m) 8(4500m)
Mo, 16.09. 5:40 8(2100m) 8(3000m) 8(4500m)
Mo, 16.09. 5:30 8(2100m) 8(3300m) 8(4800m)
Mo, 16.09. 5:00 7(2100m) 8(5100m) 8(9000m)
Mo, 16.09. 4:30 7(5100m) 7(9000m) 7(10500m)
Mo, 16.09. 4:00 1(3300m) 5(10500m)
Mo, 16.09. 3:30 1(3000m) 5(4500m) 6(5100m)
Ortszeit Luftdruck NN (hPa) Tendenz (hPa in 3 Std.)
Mo, 16.09. 2:00 1020 + 0,7
So, 15.09. 20:00 1018 + 1,2
So, 15.09. 14:00 1019 - 1,6
So, 15.09. 8:00 1022 - 2,2
So, 15.09. 2:00 1026 - 3,0
Sa, 14.09. 20:00 1030 - 1,2
Sa, 14.09. 14:00 1033 - 1,8
Sa, 14.09. 8:00 1035 + 0,5
Ortszeit Luftdruck NN (hPa) Tendenz (hPa in 3 Std.)
Mo, 16.09. 6:30 1019 - 0,4
Mo, 16.09. 6:20 1019 keine Meldung
Mo, 16.09. 6:10 1019 keine Meldung
Mo, 16.09. 6:00 1019 - 0,6
Mo, 16.09. 5:50 1019 keine Meldung
Mo, 16.09. 5:40 1019 keine Meldung
Mo, 16.09. 5:30 1020 - 0,2
Mo, 16.09. 5:00 1020 0,0
Mo, 16.09. 4:30 1020 0,0
Mo, 16.09. 4:00 1020 - 0,2
Mo, 16.09. 3:30 1020 + 0,1
Ortszeit Schneehöhe (cm)
Mo, 16.09. 2:00 -
So, 15.09. 20:00 -
So, 15.09. 14:00 -
So, 15.09. 8:00 -
So, 15.09. 2:00 -
Sa, 14.09. 20:00 -
Sa, 14.09. 14:00 -
Sa, 14.09. 8:00 -
Ortszeit Schneehöhe (cm)
Mo, 16.09. 6:30 -
Mo, 16.09. 6:20 -
Mo, 16.09. 6:10 -
Mo, 16.09. 6:00 -
Mo, 16.09. 5:50 -
Mo, 16.09. 5:40 -
Mo, 16.09. 5:30 -
Mo, 16.09. 5:00 -
Mo, 16.09. 4:30 -
Mo, 16.09. 4:00 -
Mo, 16.09. 3:30 -
Link zu dieser Seite / Seite empfehlen

Das Wetter in ...